Time;durP1;ratioP1;P1;durP2;ratioP2;P2;SDS_P1;SDS_P2;PMS_P1;PMS_P2;Temp;Humidity;BMP_temperature;BMP_pressure;BME280_temperature;BME280_humidity;BME280_pressure;Samples;Min_cycle;Max_cycle;Signal;HPM_P1;HPM_P2
2023/03/18 00:05:44;;;;;;;37.30;17.00;;;;;;;-0.17;59.46;99274.27;273423;1269;22177;-82
2023/03/18 00:11:46;;;;;;;40.50;18.80;;;;;;;-0.14;59.61;99263.54;273327;1269;24059;-82
2023/03/18 00:17:47;;;;;;;35.70;17.10;;;;;;;-0.12;59.88;99262.61;272459;1269;23060;-83
2023/03/18 00:24:10;;;;;;;40.80;18.30;;;;;;;-0.14;60.28;99264.42;273926;1257;22207;-82
2023/03/18 00:30:14;;;;;;;44.30;19.60;;;;;;;-0.18;60.57;99266.65;272745;1259;22212;-82
2023/03/18 00:36:24;;;;;;;49.10;20.10;;;;;;;-0.22;60.88;99264.84;272819;1269;22324;-84
2023/03/18 00:42:25;;;;;;;55.10;23.50;;;;;;;-0.29;61.08;99264.54;272969;1269;23075;-82
2023/03/18 00:48:28;;;;;;;127.00;52.70;;;;;;;-0.37;61.57;99266.14;271030;1259;22535;-82
2023/03/18 00:55:09;;;;;;;101.30;36.00;;;;;;;-0.42;61.83;99261.02;270817;1269;22527;-82
2023/03/18 01:01:32;;;;;;;50.30;21.00;;;;;;;-0.46;62.03;99256.67;273960;1263;22370;-82
2023/03/18 01:07:54;;;;;;;44.90;20.80;;;;;;;-0.54;62.28;99248.28;273949;1269;22182;-83
2023/03/18 01:13:58;;;;;;;46.40;19.80;;;;;;;-0.62;62.59;99242.72;273898;1259;22246;-83
2023/03/18 01:20:23;;;;;;;49.20;20.50;;;;;;;-0.67;62.53;99235.40;273744;1269;22191;-83
2023/03/18 01:27:06;;;;;;;49.30;21.50;;;;;;;-0.76;62.48;99226.25;274139;1262;22226;-82
2023/03/18 01:33:10;;;;;;;43.90;20.40;;;;;;;-0.82;62.81;99225.54;271748;1268;22616;-83
2023/03/18 01:39:33;;;;;;;36.80;17.70;;;;;;;-0.84;63.35;99230.02;271833;1270;22500;-82
2023/03/18 01:45:35;;;;;;;37.80;16.70;;;;;;;-0.86;63.89;99230.19;272045;1269;23928;-83
2023/03/18 01:52:18;;;;;;;37.40;17.10;;;;;;;-0.97;62.61;99224.14;273459;1269;22579;-83
2023/03/18 01:59:21;;;;;;;40.90;18.90;;;;;;;-1.06;64.05;99220.41;273847;1269;22237;-82
2023/03/18 02:06:05;;;;;;;38.90;17.10;;;;;;;-1.22;64.27;99218.68;272456;1274;22292;-81
2023/03/18 02:12:30;;;;;;;39.20;17.40;;;;;;;-1.34;65.66;99218.65;272763;1263;22293;-83
2023/03/18 02:19:14;;;;;;;41.10;19.50;;;;;;;-1.34;66.27;99218.48;272539;1275;23303;-83
2023/03/18 02:25:27;;;;;;;41.40;18.60;;;;;;;-1.41;65.52;99224.23;272635;1275;22228;-83
2023/03/18 02:31:49;;;;;;;45.10;20.80;;;;;;;-1.45;65.55;99222.38;272412;1283;22265;-83
2023/03/18 02:37:55;;;;;;;;;;;;;;;-1.52;66.40;99220.02;272599;1275;22429;-83
2023/03/18 02:43:58;;;;;;;53.60;24.50;;;;;;;-1.59;66.89;99215.17;272521;1276;23004;-83
2023/03/18 02:50:03;;;;;;;56.80;26.90;;;;;;;-1.70;67.41;99219.39;271901;1275;23230;-81
2023/03/18 02:56:06;;;;;;;62.60;29.50;;;;;;;-1.82;67.47;99213.12;271872;1274;22643;-83
2023/03/18 03:02:08;;;;;;;54.40;24.20;;;;;;;-1.89;67.93;99215.21;270570;1270;23740;-83
2023/03/18 03:08:34;;;;;;;48.20;24.10;;;;;;;-1.91;68.72;99214.16;270435;1266;22168;-83
2023/03/18 03:14:56;;;;;;;67.30;29.30;;;;;;;-1.99;68.71;99211.64;271022;1269;22535;-83
2023/03/18 03:21:00;;;;;;;59.00;27.40;;;;;;;-2.12;68.92;99210.23;273432;1269;22466;-84
2023/03/18 03:27:02;;;;;;;62.60;28.00;;;;;;;-2.20;69.40;99207.71;273594;1262;22521;-83
2023/03/18 03:33:04;;;;;;;67.20;29.50;;;;;;;-2.23;69.38;99208.06;273664;1276;22554;-84
2023/03/18 03:39:11;;;;;;;43.60;21.30;;;;;;;-2.21;69.78;99205.79;271021;1269;22196;-83
2023/03/18 03:45:14;;;;;;;54.60;26.20;;;;;;;-2.19;70.09;99206.09;270763;1266;23914;-84
2023/03/18 03:51:16;;;;;;;53.10;25.30;;;;;;;-2.20;70.32;99205.73;271839;1269;22765;-83
2023/03/18 03:57:18;;;;;;;49.50;25.00;;;;;;;-2.19;71.02;99212.20;271575;1269;22528;-85
2023/03/18 04:03:20;;;;;;;59.50;27.50;;;;;;;-2.25;71.14;99208.36;272287;1269;22573;-83
2023/03/18 04:09:22;;;;;;;61.40;30.90;;;;;;;-2.35;71.18;99209.43;270766;1270;22630;-82
2023/03/18 04:15:25;;;;;;;54.00;26.80;;;;;;;-2.38;71.72;99210.55;270693;1269;22370;-83
2023/03/18 04:21:27;;;;;;;60.70;29.00;;;;;;;-2.45;71.67;99211.70;271078;1270;22586;-83
2023/03/18 04:27:51;;;;;;;56.00;28.90;;;;;;;-2.56;71.74;99212.27;273117;1269;22219;-84
2023/03/18 04:33:54;;;;;;;64.50;29.80;;;;;;;-2.60;71.91;99217.44;273672;1269;22390;-83
2023/03/18 04:39:57;;;;;;;64.80;28.90;;;;;;;-2.64;72.22;99218.83;273741;1272;22258;-84
2023/03/18 04:45:59;;;;;;;58.70;28.40;;;;;;;-2.67;72.69;99228.13;273683;1256;202567;-82
2023/03/18 04:52:03;;;;;;;67.40;29.70;;;;;;;-2.71;72.71;99230.73;272593;1267;22617;-84
2023/03/18 04:58:06;;;;;;;51.70;25.20;;;;;;;-2.73;72.76;99235.63;271063;1270;23350;-83
2023/03/18 05:04:13;;;;;;;53.50;26.60;;;;;;;-2.66;73.58;99238.73;270756;1269;23249;-84
2023/03/18 05:10:22;;;;;;;58.10;26.80;;;;;;;-2.55;74.21;99236.74;270784;1269;23213;-83
2023/03/18 05:16:24;;;;;;;56.70;27.80;;;;;;;-2.50;74.38;99239.04;271755;1259;22384;-83
2023/03/18 05:22:27;;;;;;;64.50;26.80;;;;;;;-2.49;74.56;99240.81;271477;1269;22526;-83
2023/03/18 05:28:36;;;;;;;60.40;26.80;;;;;;;-2.37;74.77;99246.08;270531;1269;26503;-81
2023/03/18 05:34:55;;;;;;;54.00;26.50;;;;;;;-2.06;75.07;99248.19;270641;1269;25803;-84
2023/03/18 05:40:58;;;;;;;57.90;26.40;;;;;;;-1.82;75.39;99246.29;272386;1269;22369;-84
2023/03/18 05:47:20;;;;;;;46.70;23.70;;;;;;;-1.59;75.19;99249.42;273692;1269;22297;-83
2023/03/18 05:53:33;;;;;;;45.20;21.10;;;;;;;-1.43;74.18;99251.73;271948;1269;22188;-81
2023/03/18 05:59:45;;;;;;;43.40;21.40;;;;;;;-1.26;74.61;99247.66;271924;1260;22662;-82
2023/03/18 06:05:51;;;;;;;45.50;23.10;;;;;;;-1.06;75.08;99245.29;273739;1269;22850;-81
2023/03/18 06:11:53;;;;;;;45.20;23.80;;;;;;;-0.41;76.31;99247.21;273732;1269;22884;-83
2023/03/18 06:17:56;;;;;;;35.70;18.10;;;;;;;0.30;75.24;99247.36;273964;1275;22204;-82
2023/03/18 06:23:59;;;;;;;42.20;18.50;;;;;;;0.71;73.83;99244.64;273726;1269;22558;-84
2023/03/18 06:30:03;;;;;;;40.90;18.00;;;;;;;1.22;72.85;99248.61;273592;1260;22203;-83
2023/03/18 06:36:09;;;;;;;28.60;15.90;;;;;;;1.76;72.21;99255.58;273829;1270;22305;-83
2023/03/18 06:42:30;;;;;;;31.80;16.70;;;;;;;2.31;71.30;99261.69;273779;1270;22276;-84
2023/03/18 06:48:57;;;;;;;34.70;15.30;;;;;;;2.79;70.52;99262.90;273872;1270;22419;-82
2023/03/18 06:55:05;;;;;;;30.80;14.80;;;;;;;2.99;69.48;99269.41;274043;1260;22168;-82
2023/03/18 07:01:07;;;;;;;34.20;15.80;;;;;;;3.20;69.38;99269.48;271963;1269;22409;-81
2023/03/18 07:07:15;;;;;;;37.90;14.50;;;;;;;3.51;68.80;99269.04;271959;1269;22303;-81
2023/03/18 07:13:18;;;;;;;31.30;14.70;;;;;;;3.81;68.55;99274.75;272527;1269;22192;-80
2023/03/18 07:19:21;;;;;;;29.40;14.20;;;;;;;4.12;68.22;99274.46;273855;1269;22262;-81
2023/03/18 07:25:23;;;;;;;31.30;14.30;;;;;;;4.40;67.61;99272.00;273521;1267;22532;-82
2023/03/18 07:32:05;;;;;;;29.30;14.40;;;;;;;4.69;67.41;99276.84;271688;1270;22197;-80
2023/03/18 07:38:54;;;;;;;26.20;13.80;;;;;;;4.99;66.93;99279.23;274018;1255;22288;-81
2023/03/18 07:44:57;;;;;;;29.50;13.60;;;;;;;5.28;66.76;99278.77;274079;1273;22194;-83
2023/03/18 07:51:00;;;;;;;25.00;13.30;;;;;;;5.68;66.22;99283.91;272631;1270;26284;-83
2023/03/18 07:57:35;;;;;;;25.60;12.40;;;;;;;6.20;65.69;99285.02;270856;1267;24240;-82
2023/03/18 08:04:28;;;;;;;23.10;11.80;;;;;;;6.74;64.49;99290.05;270592;1270;22598;-83
2023/03/18 08:10:55;;;;;;;28.30;12.50;;;;;;;7.19;64.10;99290.73;272084;1269;22220;-83
2023/03/18 08:16:57;;;;;;;20.30;12.00;;;;;;;7.66;62.84;99298.11;272826;1270;22564;-84
2023/03/18 08:23:22;;;;;;;23.60;12.40;;;;;;;8.19;62.48;99301.73;271771;1263;22252;-83
2023/03/18 08:29:25;;;;;;;20.80;11.60;;;;;;;8.57;61.66;99302.05;273330;1269;23026;-83
2023/03/18 08:36:11;;;;;;;23.10;11.60;;;;;;;8.89;61.13;99303.19;273711;1272;22177;-84
2023/03/18 08:42:13;;;;;;;21.70;11.40;;;;;;;9.25;60.25;99297.34;271517;1270;22525;-83
2023/03/18 08:48:15;;;;;;;20.50;11.10;;;;;;;9.68;59.99;99291.19;271033;1269;22532;-82
2023/03/18 08:54:17;;;;;;;20.60;10.30;;;;;;;10.24;59.17;99289.02;270460;1270;22534;-82
2023/03/18 09:00:20;;;;;;;16.60;9.20;;;;;;;10.71;58.24;99291.98;270503;1269;24365;-83
2023/03/18 09:06:42;;;;;;;17.40;8.60;;;;;;;10.91;56.83;99290.23;269789;1267;22628;-83
2023/03/18 09:12:51;;;;;;;16.40;8.70;;;;;;;11.64;55.85;99283.51;271687;1269;22348;-84
2023/03/18 09:18:53;;;;;;;15.60;8.60;;;;;;;12.35;55.27;99281.83;271253;1269;22542;-85
2023/03/18 09:24:54;;;;;;;18.20;9.30;;;;;;;12.97;52.71;99277.88;269959;1269;22933;-84
2023/03/18 09:30:56;;;;;;;15.60;8.50;;;;;;;13.47;51.01;99275.96;271930;1269;22193;-84
2023/03/18 09:37:01;;;;;;;11.20;7.20;;;;;;;13.89;50.57;99275.30;273890;1269;22619;-85
2023/03/18 09:43:12;;;;;;;12.20;7.10;;;;;;;14.36;50.07;99270.59;273415;1269;24647;-85
2023/03/18 09:49:47;;;;;;;13.70;7.30;;;;;;;14.84;50.08;99269.14;274116;1253;23819;-84
2023/03/18 09:55:55;;;;;;;10.70;6.30;;;;;;;15.26;47.93;99263.68;273942;1273;22181;-84
2023/03/18 10:09:18;;;;;;;9.60;5.90;;;;;;;15.88;46.10;99251.59;273903;1276;22207;-83
2023/03/18 10:15:44;;;;;;;16.50;7.40;;;;;;;16.38;44.15;99246.35;273760;1259;22295;-85
2023/03/18 10:22:42;;;;;;;8.90;4.50;;;;;;;16.90;43.91;99247.14;273130;1262;22188;-84
2023/03/18 10:29:21;;;;;;;7.70;4.60;;;;;;;16.78;41.52;99241.20;270291;1269;22543;-83
2023/03/18 10:35:50;;;;;;;6.80;4.50;;;;;;;17.14;40.78;99233.23;270481;1269;23287;-86
2023/03/18 10:41:53;;;;;;;9.70;4.80;;;;;;;17.66;39.29;99225.23;270089;1269;23504;-84
2023/03/18 10:48:00;;;;;;;8.90;5.70;;;;;;;18.06;39.60;99213.59;271842;1269;23570;-84
2023/03/18 10:54:12;;;;;;;10.20;5.70;;;;;;;18.40;38.51;99211.23;270812;1257;22204;-85
2023/03/18 11:00:36;;;;;;;8.40;4.90;;;;;;;18.85;36.93;99212.09;273842;1269;22317;-85
2023/03/18 11:06:52;;;;;;;8.40;5.30;;;;;;;18.88;37.37;99208.55;271464;1258;22530;-84
2023/03/18 11:12:58;;;;;;;10.50;6.00;;;;;;;18.56;36.29;99202.40;271121;1269;22541;-84
2023/03/18 11:19:56;;;;;;;9.60;5.90;;;;;;;18.53;36.26;99194.54;270673;1269;22541;-85
2023/03/18 11:26:27;;;;;;;8.30;5.70;;;;;;;18.72;35.80;99184.75;270966;1269;22555;-84
2023/03/18 11:32:33;;;;;;;9.10;6.00;;;;;;;18.84;35.15;99173.60;270688;1257;22378;-82
2023/03/18 11:38:36;;;;;;;11.60;5.70;;;;;;;18.59;34.35;99171.52;271814;1269;22352;-87
2023/03/18 11:44:39;;;;;;;13.20;5.80;;;;;;;18.28;33.48;99162.85;273278;1269;22577;-85
2023/03/18 11:51:24;;;;;;;9.70;6.20;;;;;;;18.27;33.35;99154.33;271558;1268;23343;-84
2023/03/18 11:58:07;;;;;;;10.50;5.90;;;;;;;17.88;31.96;99144.05;270050;1268;22618;-86
2023/03/18 12:04:35;;;;;;;9.70;5.90;;;;;;;17.30;30.92;99141.57;271085;1269;23904;-84
2023/03/18 12:11:05;;;;;;;;;;;;;;;16.71;31.44;99134.41;272231;1256;22461;-84
2023/03/18 12:17:29;;;;;;;10.20;6.30;;;;;;;16.72;31.77;99122.39;270232;1259;24365;-84
2023/03/18 12:24:03;;;;;;;12.20;6.40;;;;;;;16.68;31.22;99118.10;270149;1268;24344;-84
2023/03/18 12:30:49;;;;;;;10.80;6.30;;;;;;;16.47;31.42;99114.85;271553;1269;22831;-84
2023/03/18 12:37:23;;;;;;;14.60;5.90;;;;;;;16.46;31.56;99109.11;273806;1256;23071;-83
2023/03/18 12:44:50;;;;;;;9.50;6.20;;;;;;;16.34;31.45;99106.75;271441;1269;25231;-81
2023/03/18 12:51:21;;;;;;;12.80;6.70;;;;;;;16.16;31.20;99102.27;272305;1269;23421;-83
2023/03/18 13:05:41;;;;;;;12.70;6.70;;;;;;;16.16;31.34;99096.66;270354;1269;25394;-83
2023/03/18 13:11:56;;;;;;;12.20;7.00;;;;;;;16.14;31.40;99094.40;271191;1269;22548;-82
2023/03/18 13:18:20;;;;;;;11.50;7.00;;;;;;;16.04;31.63;99090.77;272797;1269;22191;-83
2023/03/18 13:24:48;;;;;;;10.00;6.60;;;;;;;15.84;31.71;99086.95;272129;1269;22223;-84
2023/03/18 13:31:45;;;;;;;10.90;6.80;;;;;;;15.64;31.82;99081.75;271297;1269;22198;-82
2023/03/18 13:38:52;;;;;;;9.80;6.70;;;;;;;15.65;32.01;99074.01;273294;1269;22332;-83
2023/03/18 13:45:27;;;;;;;11.30;6.80;;;;;;;15.76;31.94;99074.31;273760;1269;22790;-82
2023/03/18 13:51:32;;;;;;;13.50;7.30;;;;;;;15.80;32.08;99069.15;271320;1267;22543;-84
2023/03/18 13:57:45;;;;;;;11.60;6.60;;;;;;;15.78;32.02;99059.23;270661;1269;22568;-83
2023/03/18 14:04:30;;;;;;;11.80;5.90;;;;;;;15.70;31.97;99055.84;270580;1260;22530;-84
2023/03/18 14:11:19;;;;;;;13.80;6.00;;;;;;;15.61;31.95;99050.71;271073;1268;23127;-84
2023/03/18 14:17:37;;;;;;;10.90;6.30;;;;;;;15.47;31.91;99046.09;270695;1268;22612;-85
2023/03/18 14:24:16;;;;;;;9.60;5.80;;;;;;;15.59;31.81;99039.44;270838;1264;22541;-83
2023/03/18 14:30:31;;;;;;;9.90;5.60;;;;;;;15.76;31.85;99034.73;271606;1269;23669;-84
2023/03/18 14:36:59;;;;;;;8.60;5.30;;;;;;;15.94;31.89;99029.60;274095;1275;22197;-83
2023/03/18 14:43:36;;;;;;;10.20;4.90;;;;;;;16.00;31.81;99022.91;273721;1269;22210;-84
2023/03/18 14:50:00;;;;;;;;;;;;;;;15.89;31.94;99023.88;273635;1271;22544;-82
2023/03/18 14:56:03;;;;;;;14.10;6.60;;;;;;;15.74;31.86;99023.93;271452;1269;22523;-83
2023/03/18 15:09:23;;;;;;;9.50;5.10;;;;;;;15.34;31.96;99025.74;271313;1269;23267;-84
2023/03/18 15:15:24;;;;;;;12.50;5.40;;;;;;;15.14;31.88;99023.76;271331;1269;22864;-83
2023/03/18 15:21:49;;;;;;;10.00;5.10;;;;;;;14.83;31.85;99022.54;273052;1269;23522;-84
2023/03/18 15:27:53;;;;;;;9.60;4.80;;;;;;;14.59;31.83;99022.27;273877;1257;22396;-84
2023/03/18 15:34:27;;;;;;;11.10;5.00;;;;;;;14.42;31.97;99021.64;273247;1269;22465;-84
2023/03/18 15:41:07;;;;;;;8.10;4.70;;;;;;;14.25;32.27;99024.58;273466;1267;23277;-83
2023/03/18 15:47:33;;;;;;;13.40;5.30;;;;;;;14.05;32.44;99022.81;273450;1272;22289;-83
2023/03/18 15:53:43;;;;;;;8.80;4.60;;;;;;;13.89;32.92;99029.76;273796;1269;22388;-83
2023/03/18 15:59:47;;;;;;;9.30;4.90;;;;;;;13.72;33.12;99037.02;273707;1260;22194;-83
2023/03/18 16:05:52;;;;;;;12.60;5.00;;;;;;;13.59;33.22;99042.45;273550;1272;22266;-83
2023/03/18 16:11:58;;;;;;;10.50;4.30;;;;;;;13.46;33.41;99044.89;273790;1272;23206;-83
2023/03/18 16:17:59;;;;;;;9.00;4.30;;;;;;;13.29;33.56;99049.43;272681;1270;25358;-83
2023/03/18 16:24:02;;;;;;;10.00;4.20;;;;;;;13.05;33.76;99059.89;273814;1271;22791;-83
2023/03/18 16:30:32;;;;;;;9.50;4.60;;;;;;;12.82;33.95;99062.33;273343;1271;22467;-83
2023/03/18 16:36:35;;;;;;;10.90;4.10;;;;;;;12.55;34.30;99064.51;271195;1267;22200;-82
2023/03/18 16:42:58;;;;;;;8.20;3.90;;;;;;;12.31;34.58;99066.27;272849;1272;22194;-82
2023/03/18 16:48:59;;;;;;;8.00;4.10;;;;;;;12.08;34.81;99066.92;267844;1270;5056203;-83
2023/03/18 16:55:01;;;;;;;13.00;4.30;;;;;;;11.79;35.31;99068.29;270269;1270;24238;-83
2023/03/18 17:01:07;;;;;;;14.20;4.00;;;;;;;11.38;35.93;99072.70;269621;1266;22888;-84
2023/03/18 17:07:08;;;;;;;21.30;6.30;;;;;;;11.04;36.74;99074.11;270938;1270;22181;-83
2023/03/18 17:13:31;;;;;;;28.40;6.80;;;;;;;10.69;37.62;99076.29;270036;1261;22521;-84
2023/03/18 17:19:34;;;;;;;13.90;6.20;;;;;;;10.26;38.39;99080.43;269975;1270;22545;-84
2023/03/18 17:25:58;;;;;;;25.50;9.90;;;;;;;9.94;39.19;99087.35;271072;1271;22473;-84
2023/03/18 17:32:21;;;;;;;32.80;13.80;;;;;;;9.54;39.71;99085.39;270502;1271;22528;-84
2023/03/18 17:38:24;;;;;;;51.10;21.20;;;;;;;9.13;40.52;99090.14;272008;1271;22513;-84
2023/03/18 17:44:29;;;;;;;52.50;20.10;;;;;;;8.79;41.23;99089.27;273068;1261;22271;-83
2023/03/18 17:50:30;;;;;;;43.10;18.80;;;;;;;8.50;41.78;99091.88;271273;1262;25451;-84
2023/03/18 17:56:54;;;;;;;37.60;17.70;;;;;;;8.23;42.39;99091.98;272171;1271;25209;-82
2023/03/18 18:02:59;;;;;;;47.60;20.70;;;;;;;7.97;43.02;99092.02;271182;1270;22537;-84
2023/03/18 18:09:01;;;;;;;52.50;19.70;;;;;;;7.78;43.87;99088.77;270622;1269;24300;-84
2023/03/18 18:15:05;;;;;;;49.50;20.10;;;;;;;7.53;44.28;99089.09;272577;1270;22870;-83
2023/03/18 18:21:30;;;;;;;41.80;18.50;;;;;;;7.30;45.01;99091.71;272911;1272;22223;-83
2023/03/18 18:27:35;;;;;;;34.20;16.90;;;;;;;7.14;46.13;99090.83;273198;1271;22215;-84
2023/03/18 18:33:38;;;;;;;46.00;22.10;;;;;;;7.02;46.50;99090.73;271751;1271;22640;-82
2023/03/18 18:39:41;;;;;;;39.70;17.90;;;;;;;6.83;46.82;99088.89;272993;1271;23008;-83
2023/03/18 18:45:52;;;;;;;41.70;18.80;;;;;;;6.62;47.94;99094.78;273151;1272;22457;-81
2023/03/18 18:52:15;;;;;;;44.10;18.30;;;;;;;6.49;48.39;99100.32;273867;1277;23584;-83
2023/03/18 18:58:38;;;;;;;36.50;17.30;;;;;;;6.30;48.90;99103.80;273266;1271;23380;-82
2023/03/18 19:04:40;;;;;;;32.80;16.20;;;;;;;6.17;49.40;99111.19;272940;1272;24049;-83
2023/03/18 19:10:42;;;;;;;32.50;14.20;;;;;;;6.03;50.00;99113.61;271915;1271;22402;-84
2023/03/18 19:16:45;;;;;;;38.60;16.60;;;;;;;5.81;50.07;99118.12;271537;1272;22274;-82
2023/03/18 19:22:49;;;;;;;49.70;19.80;;;;;;;5.65;51.05;99113.63;273230;1272;22196;-83
2023/03/18 19:28:52;;;;;;;46.30;20.40;;;;;;;5.56;51.89;99116.66;273188;1269;22495;-84
2023/03/18 19:34:54;;;;;;;48.40;21.50;;;;;;;5.39;52.26;99114.39;273125;1272;22348;-83
2023/03/18 19:40:58;;;;;;;41.60;18.40;;;;;;;5.19;52.71;99124.89;273294;1273;22258;-83
2023/03/18 19:47:24;;;;;;;60.20;29.60;;;;;;;5.10;53.37;99127.35;272260;1272;22286;-83
2023/03/18 19:53:46;;;;;;;63.40;28.00;;;;;;;4.85;53.20;99129.45;272669;1270;22464;-81
2023/03/18 19:59:49;;;;;;;58.90;26.80;;;;;;;4.51;54.26;99133.15;272244;1272;22244;-83
2023/03/18 20:06:05;;;;;;;49.60;24.00;;;;;;;4.35;55.29;99143.56;273211;1272;22982;-83
2023/03/18 20:12:41;;;;;;;43.90;20.50;;;;;;;4.28;55.95;99156.43;273301;1272;22166;-83
2023/03/18 20:18:45;;;;;;;55.20;25.10;;;;;;;4.16;56.32;99161.70;273261;1273;22174;-82
2023/03/18 20:24:48;;;;;;;69.40;30.30;;;;;;;4.06;57.10;99159.92;273186;1271;22202;-83
2023/03/18 20:30:51;;;;;;;52.40;26.80;;;;;;;3.84;56.93;99161.67;273080;1269;22204;-83
2023/03/18 20:36:53;;;;;;;60.10;27.00;;;;;;;3.51;57.34;99164.34;273067;1269;22394;-82
2023/03/18 20:42:56;;;;;;;68.70;32.50;;;;;;;3.29;58.30;99167.70;273147;1273;23426;-83
2023/03/18 20:49:02;;;;;;;92.20;43.20;;;;;;;3.30;58.98;99170.33;273164;1273;22230;-83
2023/03/18 20:55:25;;;;;;;153.60;64.60;;;;;;;3.33;58.66;99170.41;272920;1272;22268;-82
2023/03/18 21:01:27;;;;;;;111.20;48.40;;;;;;;3.38;59.32;99171.28;273127;1272;22927;-81
2023/03/18 21:07:48;;;;;;;107.30;44.70;;;;;;;3.11;58.97;99182.59;273327;1276;22747;-83
2023/03/18 21:13:50;;;;;;;96.50;41.60;;;;;;;2.92;60.07;99187.90;273265;1271;22184;-83
2023/03/18 21:19:56;;;;;;;117.60;47.00;;;;;;;2.94;60.83;99190.45;273040;1262;23064;-83
2023/03/18 21:26:25;;;;;;;92.80;41.80;;;;;;;2.84;61.04;99186.45;273480;1277;22189;-81
2023/03/18 21:32:31;;;;;;;103.80;43.30;;;;;;;2.63;60.76;99188.44;273426;1275;22649;-82
2023/03/18 21:38:51;;;;;;;92.10;43.90;;;;;;;2.51;60.85;99196.75;272695;1275;22384;-83
2023/03/18 21:44:54;;;;;;;101.10;48.10;;;;;;;2.50;62.56;99198.19;273503;1272;22270;-83
2023/03/18 21:51:39;;;;;;;120.40;54.70;;;;;;;2.46;63.10;99197.94;273051;1269;22194;-82
2023/03/18 21:57:43;;;;;;;119.40;55.50;;;;;;;2.41;63.48;99190.67;272808;1271;22329;-83
2023/03/18 22:04:00;;;;;;;110.40;53.50;;;;;;;2.34;63.92;99190.13;271974;1272;25346;-81
2023/03/18 22:10:01;;;;;;;;;;;;;;;2.31;64.63;99185.20;270718;1271;22640;-82
2023/03/18 22:16:03;;;;;;;102.40;46.50;;;;;;;2.10;64.42;99189.77;273266;1274;23225;-82
2023/03/18 22:22:11;;;;;;;108.80;48.30;;;;;;;1.99;65.05;99192.16;271311;1270;23573;-82
2023/03/18 22:28:13;;;;;;;83.80;41.10;;;;;;;1.97;65.27;99190.38;273009;1263;22368;-80
2023/03/18 22:34:22;;;;;;;101.00;48.60;;;;;;;1.96;65.63;99191.08;272870;1272;22422;-82
2023/03/18 22:40:28;;;;;;;111.10;50.30;;;;;;;1.94;66.40;99194.05;273134;1262;22370;-81
2023/03/18 22:46:49;;;;;;;;;;;;;;;1.76;66.34;99193.80;273156;1271;22456;-82
2023/03/18 22:52:58;;;;;;;102.50;49.70;;;;;;;1.64;66.20;99194.38;272611;1260;22580;-82
2023/03/18 22:59:03;;;;;;;116.90;53.40;;;;;;;1.61;67.43;99203.19;271850;1275;23180;-82
2023/03/18 23:05:05;;;;;;;115.50;56.20;;;;;;;1.56;67.85;99202.73;273016;1271;23188;-83
2023/03/18 23:11:07;;;;;;;128.80;59.40;;;;;;;1.53;68.26;99205.10;272547;1272;22512;-82
2023/03/18 23:17:37;;;;;;;112.60;51.70;;;;;;;1.46;68.57;99205.23;272686;1275;22442;-80
2023/03/18 23:23:41;;;;;;;123.80;56.30;;;;;;;1.24;68.27;99220.38;272858;1269;25416;-81
2023/03/18 23:29:42;;;;;;;120.60;52.10;;;;;;;1.11;69.06;99220.38;273278;1272;22207;-83
2023/03/18 23:35:48;;;;;;;132.40;59.90;;;;;;;1.06;68.67;99218.98;272744;1257;22612;-82
2023/03/18 23:41:50;;;;;;;139.20;61.30;;;;;;;0.98;69.16;99214.49;271497;1270;22551;-83
2023/03/18 23:47:55;;;;;;;124.50;56.50;;;;;;;0.96;70.24;99213.69;271878;1271;22810;-80
2023/03/18 23:53:57;;;;;;;128.00;56.50;;;;;;;0.86;70.26;99209.23;269903;1270;22469;-83
